sensor_id;sensor_type;location;lat;lon;timestamp;pressure;altitude;pressure_sealevel;temperature;humidity
49393;BME280;35268;42.642;23.308;2023-07-31T00:01:32;93633.09;;;19.81;75.74
49393;BME280;35268;42.642;23.308;2023-07-31T00:04:00;93627.72;;;19.85;75.64
49393;BME280;35268;42.642;23.308;2023-07-31T00:06:25;93629.66;;;19.84;77.23
49393;BME280;35268;42.642;23.308;2023-07-31T00:08:51;93632.31;;;19.81;77.64
49393;BME280;35268;42.642;23.308;2023-07-31T00:11:34;93629.97;;;19.72;77.83
49393;BME280;35268;42.642;23.308;2023-07-31T00:14:00;93630.66;;;19.69;78.01
49393;BME280;35268;42.642;23.308;2023-07-31T00:16:29;93631.75;;;19.61;79.42
49393;BME280;35268;42.642;23.308;2023-07-31T00:18:58;93637.50;;;19.56;79.01
49393;BME280;35268;42.642;23.308;2023-07-31T00:21:23;93625.84;;;19.44;77.31
49393;BME280;35268;42.642;23.308;2023-07-31T00:23:48;93627.38;;;19.42;76.83
49393;BME280;35268;42.642;23.308;2023-07-31T00:26:14;93620.44;;;19.44;77.31
49393;BME280;35268;42.642;23.308;2023-07-31T00:28:39;93620.06;;;19.42;78.23
49393;BME280;35268;42.642;23.308;2023-07-31T00:31:05;93616.97;;;19.44;77.87
49393;BME280;35268;42.642;23.308;2023-07-31T00:33:31;93607.69;;;19.41;78.26
49393;BME280;35268;42.642;23.308;2023-07-31T00:35:56;93590.34;;;19.46;78.21
49393;BME280;35268;42.642;23.308;2023-07-31T00:38:22;93588.06;;;19.48;78.18
49393;BME280;35268;42.642;23.308;2023-07-31T00:40:47;93595.38;;;19.48;78.18
49393;BME280;35268;42.642;23.308;2023-07-31T00:43:13;93593.78;;;19.43;79.94
49393;BME280;35268;42.642;23.308;2023-07-31T00:45:38;93586.13;;;19.49;80.05
49393;BME280;35268;42.642;23.308;2023-07-31T00:48:04;93593.78;;;19.43;80.43
49393;BME280;35268;42.642;23.308;2023-07-31T00:50:31;93600.66;;;19.33;80.44
49393;BME280;35268;42.642;23.308;2023-07-31T00:52:58;93609.88;;;19.25;81.18
49393;BME280;35268;42.642;23.308;2023-07-31T00:55:24;93599.84;;;19.26;80.10
49393;BME280;35268;42.642;23.308;2023-07-31T00:57:49;93606.03;;;19.26;80.35
49393;BME280;35268;42.642;23.308;2023-07-31T01:00:17;93606.34;;;19.17;80.55
49393;BME280;35268;42.642;23.308;2023-07-31T01:02:42;93594.72;;;19.10;80.83
49393;BME280;35268;42.642;23.308;2023-07-31T01:05:08;93594.25;;;19.04;81.64
49393;BME280;35268;42.642;23.308;2023-07-31T01:07:35;93595.38;;;18.99;82.25
49393;BME280;35268;42.642;23.308;2023-07-31T01:10:13;93590.72;;;18.96;82.50
49393;BME280;35268;42.642;23.308;2023-07-31T01:12:41;93601.16;;;18.98;82.60
49393;BME280;35268;42.642;23.308;2023-07-31T01:15:08;93593.72;;;18.88;82.95
49393;BME280;35268;42.642;23.308;2023-07-31T01:17:38;93576.38;;;18.85;83.56
49393;BME280;35268;42.642;23.308;2023-07-31T01:20:05;93583.75;;;18.92;84.23
49393;BME280;35268;42.642;23.308;2023-07-31T01:28:00;93588.56;;;18.75;84.87
49393;BME280;35268;42.642;23.308;2023-07-31T01:30:33;93595.16;;;18.78;85.36
49393;BME280;35268;42.642;23.308;2023-07-31T01:33:01;93578.91;;;18.74;85.39
49393;BME280;35268;42.642;23.308;2023-07-31T01:35:33;93582.81;;;18.77;nan
49393;BME280;35268;42.642;23.308;2023-07-31T01:37:59;93588.22;;;18.77;85.73
49393;BME280;35268;42.642;23.308;2023-07-31T01:40:24;93578.16;;;18.74;85.98
49393;BME280;35268;42.642;23.308;2023-07-31T01:42:50;93581.19;;;18.69;85.98
49393;BME280;35268;42.642;23.308;2023-07-31T01:45:15;93575.81;;;18.72;85.87
49393;BME280;35268;42.642;23.308;2023-07-31T01:47:40;93571.22;;;18.76;86.46
49393;BME280;35268;42.642;23.308;2023-07-31T01:50:06;93575.81;;;18.72;87.72
49393;BME280;35268;42.642;23.308;2023-07-31T01:52:32;93572.00;;;18.77;87.01
49393;BME280;35268;42.642;23.308;2023-07-31T01:54:57;93585.84;;;18.72;86.88
49393;BME280;35268;42.642;23.308;2023-07-31T01:57:23;93580.03;;;18.70;87.09
49393;BME280;35268;42.642;23.308;2023-07-31T01:59:48;93580.06;;;18.73;87.37
49393;BME280;35268;42.642;23.308;2023-07-31T02:02:14;93578.94;;;18.78;87.34
49393;BME280;35268;42.642;23.308;2023-07-31T02:04:39;93575.03;;;18.72;87.33
49393;BME280;35268;42.642;23.308;2023-07-31T02:07:06;93590.09;;;18.73;87.30
49393;BME280;35268;42.642;23.308;2023-07-31T02:09:31;93591.66;;;18.74;87.39
49393;BME280;35268;42.642;23.308;2023-07-31T02:11:56;93593.63;;;18.77;87.52
49393;BME280;35268;42.642;23.308;2023-07-31T02:14:22;93597.16;;;18.81;87.34
49393;BME280;35268;42.642;23.308;2023-07-31T02:16:47;93608.34;;;18.83;87.43
49393;BME280;35268;42.642;23.308;2023-07-31T02:19:13;93601.78;;;18.84;86.91
49393;BME280;35268;42.642;23.308;2023-07-31T02:21:39;93599.91;;;18.88;86.81
49393;BME280;35268;42.642;23.308;2023-07-31T02:24:04;93598.41;;;18.94;86.98
49393;BME280;35268;42.642;23.308;2023-07-31T02:26:30;93593.78;;;18.95;87.05
49393;BME280;35268;42.642;23.308;2023-07-31T02:28:55;93593.41;;;18.96;86.88
49393;BME280;35268;42.642;23.308;2023-07-31T02:31:21;93598.09;;;18.99;86.65
49393;BME280;35268;42.642;23.308;2023-07-31T02:33:46;93585.41;;;19.03;85.75
49393;BME280;35268;42.642;23.308;2023-07-31T02:36:11;93598.94;;;19.07;85.39
49393;BME280;35268;42.642;23.308;2023-07-31T02:38:37;93586.25;;;19.11;84.60
49393;BME280;35268;42.642;23.308;2023-07-31T02:41:02;93585.91;;;19.20;84.18
49393;BME280;35268;42.642;23.308;2023-07-31T02:43:28;93575.84;;;19.17;84.08
49393;BME280;35268;42.642;23.308;2023-07-31T02:45:53;93590.16;;;19.17;83.96
49393;BME280;35268;42.642;23.308;2023-07-31T02:48:19;93597.13;;;19.22;83.31
49393;BME280;35268;42.642;23.308;2023-07-31T02:50:45;93599.84;;;19.26;83.82
49393;BME280;35268;42.642;23.308;2023-07-31T02:53:10;93610.28;;;19.27;83.57
49393;BME280;35268;42.642;23.308;2023-07-31T02:55:36;93611.03;;;19.24;83.44
49393;BME280;35268;42.642;23.308;2023-07-31T02:58:01;93618.78;;;19.26;83.23
49393;BME280;35268;42.642;23.308;2023-07-31T03:00:27;93625.72;;;19.27;83.75
49393;BME280;35268;42.642;23.308;2023-07-31T03:02:53;93622.66;;;19.28;83.92
49393;BME280;35268;42.642;23.308;2023-07-31T03:05:18;93621.50;;;19.33;83.69
49393;BME280;35268;42.642;23.308;2023-07-31T03:07:44;93618.09;;;19.39;82.71
49393;BME280;35268;42.642;23.308;2023-07-31T03:10:09;93622.75;;;19.42;82.66
49393;BME280;35268;42.642;23.308;2023-07-31T03:12:35;93614.97;;;19.37;83.04
49393;BME280;35268;42.642;23.308;2023-07-31T03:15:00;93625.06;;;19.40;83.34
49393;BME280;35268;42.642;23.308;2023-07-31T03:17:25;93627.34;;;19.38;83.18
49393;BME280;35268;42.642;23.308;2023-07-31T03:19:51;93634.34;;;19.43;82.72
49393;BME280;35268;42.642;23.308;2023-07-31T03:22:17;93633.59;;;19.46;82.08
49393;BME280;35268;42.642;23.308;2023-07-31T03:24:42;93632.06;;;19.49;82.54
49393;BME280;35268;42.642;23.308;2023-07-31T03:27:07;93632.84;;;19.49;82.55
49393;BME280;35268;42.642;23.308;2023-07-31T03:29:33;93636.72;;;19.52;81.94
49393;BME280;35268;42.642;23.308;2023-07-31T03:31:58;93640.19;;;19.49;82.33
49393;BME280;35268;42.642;23.308;2023-07-31T03:34:24;93636.69;;;19.48;82.57
49393;BME280;35268;42.642;23.308;2023-07-31T03:36:49;93636.72;;;19.52;82.28
49393;BME280;35268;42.642;23.308;2023-07-31T03:39:15;93644.41;;;19.50;81.85
49393;BME280;35268;42.642;23.308;2023-07-31T03:41:40;93640.53;;;19.47;81.93
49393;BME280;35268;42.642;23.308;2023-07-31T03:44:06;93651.31;;;19.43;81.79
49393;BME280;35268;42.642;23.308;2023-07-31T03:46:31;93652.13;;;19.48;81.88
49393;BME280;35268;42.642;23.308;2023-07-31T03:48:57;93644.41;;;19.50;82.17
49393;BME280;35268;42.642;23.308;2023-07-31T03:51:22;93659.50;;;19.51;81.98
49393;BME280;35268;42.642;23.308;2023-07-31T03:53:48;93660.63;;;19.50;81.25
49393;BME280;35268;42.642;23.308;2023-07-31T03:56:13;93654.47;;;19.49;81.33
49393;BME280;35268;42.642;23.308;2023-07-31T03:58:39;93664.47;;;19.45;81.66
49393;BME280;35268;42.642;23.308;2023-07-31T04:01:04;93667.53;;;19.43;82.26
49393;BME280;35268;42.642;23.308;2023-07-31T04:03:30;93655.16;;;19.39;82.32
49393;BME280;35268;42.642;23.308;2023-07-31T04:05:55;93661.72;;;19.41;82.32
49393;BME280;35268;42.642;23.308;2023-07-31T04:08:22;93659.03;;;19.41;82.03
49393;BME280;35268;42.642;23.308;2023-07-31T04:10:48;93663.28;;;19.42;81.91
49393;BME280;35268;42.642;23.308;2023-07-31T04:13:13;93667.94;;;19.45;81.41
49393;BME280;35268;42.642;23.308;2023-07-31T04:15:39;93669.84;;;19.41;80.97
49393;BME280;35268;42.642;23.308;2023-07-31T04:18:05;93670.63;;;19.42;81.00
49393;BME280;35268;42.642;23.308;2023-07-31T04:20:31;93673.38;;;19.49;80.80
49393;BME280;35268;42.642;23.308;2023-07-31T04:22:56;93668.34;;;19.48;80.48
49393;BME280;35268;42.642;23.308;2023-07-31T04:25:21;93669.19;;;19.55;80.46
49393;BME280;35268;42.642;23.308;2023-07-31T04:27:47;93674.94;;;19.54;79.92
49393;BME280;35268;42.642;23.308;2023-07-31T04:30:13;93668.41;;;19.55;80.04
49393;BME280;35268;42.642;23.308;2023-07-31T04:32:38;93677.69;;;19.57;79.36
49393;BME280;35268;42.642;23.308;2023-07-31T04:35:07;93669.59;;;19.57;79.53
49393;BME280;35268;42.642;23.308;2023-07-31T04:37:39;93669.91;;;19.49;78.66
49393;BME280;35268;42.642;23.308;2023-07-31T04:40:05;93684.22;;;19.53;78.95
49393;BME280;35268;42.642;23.308;2023-07-31T04:42:31;93676.06;;;19.49;78.55
49393;BME280;35268;42.642;23.308;2023-07-31T04:44:56;93680.00;;;19.55;79.07
49393;BME280;35268;42.642;23.308;2023-07-31T04:47:21;93660.75;;;19.64;77.34
49393;BME280;35268;42.642;23.308;2023-07-31T04:49:47;93664.97;;;19.61;77.51
49393;BME280;35268;42.642;23.308;2023-07-31T04:52:12;93661.53;;;19.64;77.16
49393;BME280;35268;42.642;23.308;2023-07-31T04:54:38;93668.44;;;19.62;77.22
49393;BME280;35268;42.642;23.308;2023-07-31T04:57:06;93665.38;;;19.63;77.41
49393;BME280;35268;42.642;23.308;2023-07-31T04:59:32;93670.50;;;19.72;76.86
49393;BME280;35268;42.642;23.308;2023-07-31T05:01:57;93671.72;;;19.82;76.87
49393;BME280;35268;42.642;23.308;2023-07-31T05:04:23;93674.16;;;19.98;76.38
49393;BME280;35268;42.642;23.308;2023-07-31T05:06:51;93656.38;;;20.00;76.11
49393;BME280;35268;42.642;23.308;2023-07-31T05:09:17;93664.94;;;20.10;76.13
49393;BME280;35268;42.642;23.308;2023-07-31T05:11:43;93671.19;;;20.21;75.56
49393;BME280;35268;42.642;23.308;2023-07-31T05:14:09;93671.56;;;20.23;74.91
49393;BME280;35268;42.642;23.308;2023-07-31T05:16:34;93655.38;;;20.27;74.97
49393;BME280;35268;42.642;23.308;2023-07-31T05:19:00;93660.00;;;20.26;74.38
49393;BME280;35268;42.642;23.308;2023-07-31T05:21:25;93661.94;;;20.26;73.74
49393;BME280;35268;42.642;23.308;2023-07-31T05:23:50;93664.59;;;20.18;74.12
49393;BME280;35268;42.642;23.308;2023-07-31T05:26:16;93658.44;;;20.21;74.64
49393;BME280;35268;42.642;23.308;2023-07-31T05:28:41;93662.72;;;20.26;74.50
49393;BME280;35268;42.642;23.308;2023-07-31T05:31:07;93665.44;;;20.30;73.88
49393;BME280;35268;42.642;23.308;2023-07-31T05:33:33;93669.72;;;20.38;73.56
49393;BME280;35268;42.642;23.308;2023-07-31T05:35:59;93668.63;;;20.53;73.24
49393;BME280;35268;42.642;23.308;2023-07-31T05:38:25;93674.44;;;20.55;72.75
49393;BME280;35268;42.642;23.308;2023-07-31T05:40:50;93671.72;;;20.55;72.82
49393;BME280;35268;42.642;23.308;2023-07-31T05:43:15;93663.69;;;20.66;72.69
49393;BME280;35268;42.642;23.308;2023-07-31T05:48:56;93657.13;;;20.78;73.15
49393;BME280;35268;42.642;23.308;2023-07-31T05:51:29;93654.47;;;20.92;72.95
49393;BME280;35268;42.642;23.308;2023-07-31T05:53:54;93659.91;;;20.99;71.90
49393;BME280;35268;42.642;23.308;2023-07-31T05:56:25;93659.16;;;21.10;70.45
49393;BME280;35268;42.642;23.308;2023-07-31T05:59:22;93671.13;;;21.01;69.48
49393;BME280;35268;42.642;23.308;2023-07-31T06:02:06;93667.28;;;21.10;68.89
49393;BME280;35268;42.642;23.308;2023-07-31T06:08:06;93672.34;;;21.15;67.03
49393;BME280;35268;42.642;23.308;2023-07-31T06:10:32;93673.88;;;21.16;68.00
49393;BME280;35268;42.642;23.308;2023-07-31T06:12:57;93673.09;;;21.22;68.26
49393;BME280;35268;42.642;23.308;2023-07-31T06:18:14;93680.16;;;21.56;65.90
49393;BME280;35268;42.642;23.308;2023-07-31T06:20:42;93681.69;;;21.64;65.73
49393;BME280;35268;42.642;23.308;2023-07-31T06:23:08;93672.78;;;21.46;62.49
49393;BME280;35268;42.642;23.308;2023-07-31T06:32:06;93676.22;;;21.39;63.49
49393;BME280;35268;42.642;23.308;2023-07-31T06:34:32;93678.59;;;21.48;62.49
49393;BME280;35268;42.642;23.308;2023-07-31T06:37:14;93668.91;;;21.47;62.37
49393;BME280;35268;42.642;23.308;2023-07-31T06:39:51;93671.59;;;21.39;61.33
49393;BME280;35268;42.642;23.308;2023-07-31T06:45:36;93669.28;;;21.49;61.67
49393;BME280;35268;42.642;23.308;2023-07-31T06:48:03;93682.44;;;21.43;62.33
49393;BME280;35268;42.642;23.308;2023-07-31T06:50:32;93670.81;;;21.21;61.93
49393;BME280;35268;42.642;23.308;2023-07-31T06:53:33;93680.47;;;21.15;62.73
49393;BME280;35268;42.642;23.308;2023-07-31T06:56:21;93685.47;;;21.16;62.97
49393;BME280;35268;42.642;23.308;2023-07-31T06:58:46;93696.34;;;21.13;63.10
49393;BME280;35268;42.642;23.308;2023-07-31T07:01:14;93687.81;;;21.14;63.27
49393;BME280;35268;42.642;23.308;2023-07-31T07:03:47;93691.25;;;21.04;64.29
49393;BME280;35268;42.642;23.308;2023-07-31T07:06:16;93683.16;;;21.00;64.35
49393;BME280;35268;42.642;23.308;2023-07-31T07:08:44;93678.91;;;21.07;64.25
49393;BME280;35268;42.642;23.308;2023-07-31T07:11:10;93688.19;;;21.09;63.03
49393;BME280;35268;42.642;23.308;2023-07-31T07:13:38;93673.50;;;21.21;63.27
49393;BME280;35268;42.642;23.308;2023-07-31T07:16:06;93670.03;;;21.35;62.21
49393;BME280;35268;42.642;23.308;2023-07-31T07:18:35;93690.94;;;21.38;60.65
49393;BME280;35268;42.642;23.308;2023-07-31T07:21:01;93683.94;;;21.22;61.46
49393;BME280;35268;42.642;23.308;2023-07-31T07:23:27;93690.13;;;21.16;61.03
49393;BME280;35268;42.642;23.308;2023-07-31T07:25:52;93670.81;;;21.21;62.06
49393;BME280;35268;42.642;23.308;2023-07-31T07:28:18;93684.38;;;21.35;61.00
49393;BME280;35268;42.642;23.308;2023-07-31T07:30:43;93675.47;;;21.31;60.21
49393;BME280;35268;42.642;23.308;2023-07-31T07:33:09;93681.66;;;21.32;60.84
49393;BME280;35268;42.642;23.308;2023-07-31T07:35:35;93678.16;;;21.28;61.02
49393;BME280;35268;42.642;23.308;2023-07-31T07:38:02;93689.78;;;21.35;61.21
49393;BME280;35268;42.642;23.308;2023-07-31T07:40:28;93689.03;;;21.42;60.07
49393;BME280;35268;42.642;23.308;2023-07-31T07:42:54;93702.59;;;21.53;59.84
49393;BME280;35268;42.642;23.308;2023-07-31T07:45:19;93676.28;;;21.68;59.40
49393;BME280;35268;42.642;23.308;2023-07-31T07:47:45;93699.53;;;21.72;59.75
49393;BME280;35268;42.642;23.308;2023-07-31T07:50:10;93685.19;;;21.61;60.16
49393;BME280;35268;42.642;23.308;2023-07-31T07:52:36;93692.16;;;21.62;60.14
49393;BME280;35268;42.642;23.308;2023-07-31T07:55:01;93697.19;;;21.63;59.46
49393;BME280;35268;42.642;23.308;2023-07-31T07:57:27;93699.53;;;21.76;59.20
49393;BME280;35268;42.642;23.308;2023-07-31T07:59:53;93706.09;;;21.86;59.05
49393;BME280;35268;42.642;23.308;2023-07-31T08:02:18;93711.91;;;21.95;59.09
49393;BME280;35268;42.642;23.308;2023-07-31T08:04:43;93704.94;;;22.01;58.83
49393;BME280;35268;42.642;23.308;2023-07-31T08:07:12;93704.94;;;21.87;59.19
49393;BME280;35268;42.642;23.308;2023-07-31T08:09:38;93699.88;;;21.96;59.41
49393;BME280;35268;42.642;23.308;2023-07-31T08:12:04;93693.28;;;22.15;58.86
49393;BME280;35268;42.642;23.308;2023-07-31T08:14:29;93690.97;;;22.13;57.09
49393;BME280;35268;42.642;23.308;2023-07-31T08:16:55;93703.75;;;22.23;57.50
49393;BME280;35268;42.642;23.308;2023-07-31T08:19:21;93687.81;;;22.40;56.83
49393;BME280;35268;42.642;23.308;2023-07-31T08:21:46;93690.88;;;22.56;56.83
49393;BME280;35268;42.642;23.308;2023-07-31T08:24:11;93697.38;;;22.77;54.97
49393;BME280;35268;42.642;23.308;2023-07-31T08:26:37;93704.78;;;22.73;54.29
49393;BME280;35268;42.642;23.308;2023-07-31T08:29:02;93699.72;;;22.78;55.33
49393;BME280;35268;42.642;23.308;2023-07-31T08:31:28;93696.94;;;22.96;55.02
49393;BME280;35268;42.642;23.308;2023-07-31T08:33:54;93700.34;;;23.18;53.58
49393;BME280;35268;42.642;23.308;2023-07-31T08:36:20;93689.78;;;23.28;52.97
49393;BME280;35268;42.642;23.308;2023-07-31T08:38:45;93697.59;;;23.22;52.50
49393;BME280;35268;42.642;23.308;2023-07-31T08:41:11;93694.47;;;23.27;53.31
49393;BME280;35268;42.642;23.308;2023-07-31T08:43:38;93703.72;;;23.37;53.14
49393;BME280;35268;42.642;23.308;2023-07-31T08:46:04;93692.78;;;23.44;52.68
49393;BME280;35268;42.642;23.308;2023-07-31T08:48:31;93703.66;;;23.48;52.81
49393;BME280;35268;42.642;23.308;2023-07-31T08:50:57;93699.03;;;23.41;51.55
49393;BME280;35268;42.642;23.308;2023-07-31T08:53:22;93708.75;;;23.38;52.00
49393;BME280;35268;42.642;23.308;2023-07-31T08:55:48;93708.44;;;23.29;52.48
49393;BME280;35268;42.642;23.308;2023-07-31T08:58:15;93709.25;;;23.22;52.65
49393;BME280;35268;42.642;23.308;2023-07-31T09:00:42;93724.06;;;23.07;51.83
49393;BME280;35268;42.642;23.308;2023-07-31T09:03:13;93711.63;;;23.10;51.90
49393;BME280;35268;42.642;23.308;2023-07-31T09:05:43;93706.94;;;23.17;51.82
49393;BME280;35268;42.642;23.308;2023-07-31T09:08:11;93697.63;;;23.15;51.77
49393;BME280;35268;42.642;23.308;2023-07-31T09:10:41;93691.34;;;23.29;51.83
49393;BME280;35268;42.642;23.308;2023-07-31T09:13:08;93690.50;;;23.39;50.80
49393;BME280;35268;42.642;23.308;2023-07-31T09:15:33;93707.44;;;23.61;50.39
49393;BME280;35268;42.642;23.308;2023-07-31T09:18:01;93682.50;;;23.73;50.86
49393;BME280;35268;42.642;23.308;2023-07-31T09:20:27;93690.28;;;23.71;50.18
49393;BME280;35268;42.642;23.308;2023-07-31T09:22:52;93692.94;;;23.82;50.59
49393;BME280;35268;42.642;23.308;2023-07-31T09:30:18;93686.91;;;24.05;48.86
49393;BME280;35268;42.642;23.308;2023-07-31T09:32:44;93672.81;;;24.14;49.26
49393;BME280;35268;42.642;23.308;2023-07-31T09:37:38;93668.53;;;24.16;48.91
49393;BME280;35268;42.642;23.308;2023-07-31T09:40:04;93671.59;;;24.18;48.69
49393;BME280;35268;42.642;23.308;2023-07-31T09:42:29;93659.47;;;24.27;49.18
49393;BME280;35268;42.642;23.308;2023-07-31T09:45:07;93668.00;;;24.29;49.78
49393;BME280;35268;42.642;23.308;2023-07-31T09:47:33;93660.09;;;24.38;50.00
49393;BME280;35268;42.642;23.308;2023-07-31T09:49:59;93653.41;;;24.46;48.73
49393;BME280;35268;42.642;23.308;2023-07-31T09:52:26;93653.47;;;24.42;47.67
49393;BME280;35268;42.642;23.308;2023-07-31T09:54:53;93650.59;;;24.57;48.57
49393;BME280;35268;42.642;23.308;2023-07-31T09:57:21;93657.19;;;24.59;48.23
49393;BME280;35268;42.642;23.308;2023-07-31T09:59:48;93656.84;;;24.54;47.79
49393;BME280;35268;42.642;23.308;2023-07-31T10:02:17;93649.78;;;24.60;47.86
49393;BME280;35268;42.642;23.308;2023-07-31T10:04:47;93642.97;;;24.75;47.96
49393;BME280;35268;42.642;23.308;2023-07-31T10:07:16;93649.09;;;24.83;45.96
49393;BME280;35268;42.642;23.308;2023-07-31T10:09:42;93655.00;;;24.78;47.42
49393;BME280;35268;42.642;23.308;2023-07-31T10:12:10;93652.59;;;24.83;46.09
49393;BME280;35268;42.642;23.308;2023-07-31T10:14:37;93655.63;;;24.89;46.90
49393;BME280;35268;42.642;23.308;2023-07-31T10:17:05;93666.75;;;25.06;43.82
49393;BME280;35268;42.642;23.308;2023-07-31T10:19:31;93655.09;;;25.01;44.61
49393;BME280;35268;42.642;23.308;2023-07-31T10:21:57;93646.28;;;24.90;45.85
49393;BME280;35268;42.642;23.308;2023-07-31T10:24:24;93644.13;;;25.05;45.20
49393;BME280;35268;42.642;23.308;2023-07-31T10:26:52;93644.50;;;25.07;44.78
49393;BME280;35268;42.642;23.308;2023-07-31T10:29:18;93644.56;;;25.03;44.90
49393;BME280;35268;42.642;23.308;2023-07-31T10:31:46;93643.69;;;25.10;43.22
49393;BME280;35268;42.642;23.308;2023-07-31T10:34:12;93662.66;;;25.21;43.03
49393;BME280;35268;42.642;23.308;2023-07-31T10:36:38;93648.59;;;25.22;43.04
49393;BME280;35268;42.642;23.308;2023-07-31T10:39:04;93647.44;;;25.20;42.02
49393;BME280;35268;42.642;23.308;2023-07-31T10:41:33;93634.56;;;25.20;41.70
49393;BME280;35268;42.642;23.308;2023-07-31T10:44:01;93643.09;;;25.26;43.56
49393;BME280;35268;42.642;23.308;2023-07-31T10:46:29;93640.75;;;25.52;42.87
49393;BME280;35268;42.642;23.308;2023-07-31T10:49:00;93636.28;;;25.38;41.52
49393;BME280;35268;42.642;23.308;2023-07-31T10:51:35;93630.94;;;25.31;42.21
49393;BME280;35268;42.642;23.308;2023-07-31T10:54:14;93643.97;;;25.47;42.66
49393;BME280;35268;42.642;23.308;2023-07-31T10:56:45;93632.94;;;25.54;41.64
49393;BME280;35268;42.642;23.308;2023-07-31T10:59:11;93624.06;;;25.46;41.32
49393;BME280;35268;42.642;23.308;2023-07-31T11:01:51;93623.63;;;25.51;41.06
49393;BME280;35268;42.642;23.308;2023-07-31T11:04:22;93614.41;;;25.41;40.57
49393;BME280;35268;42.642;23.308;2023-07-31T11:06:56;93614.22;;;25.52;39.95
49393;BME280;35268;42.642;23.308;2023-07-31T11:09:24;93615.16;;;25.69;40.70
49393;BME280;35268;42.642;23.308;2023-07-31T11:11:49;93618.34;;;25.88;41.01
49393;BME280;35268;42.642;23.308;2023-07-31T11:14:17;93614.91;;;25.83;39.65
49393;BME280;35268;42.642;23.308;2023-07-31T11:16:42;93604.28;;;25.89;38.46
49393;BME280;35268;42.642;23.308;2023-07-31T11:19:08;93607.31;;;25.95;39.34
49393;BME280;35268;42.642;23.308;2023-07-31T11:21:34;93615.09;;;25.96;37.84
49393;BME280;35268;42.642;23.308;2023-07-31T11:23:59;93623.31;;;26.16;38.40
49393;BME280;35268;42.642;23.308;2023-07-31T11:26:25;93601.47;;;26.36;37.79
49393;BME280;35268;42.642;23.308;2023-07-31T11:28:51;93610.84;;;26.55;36.89
49393;BME280;35268;42.642;23.308;2023-07-31T11:31:17;93602.66;;;26.55;37.35
49393;BME280;35268;42.642;23.308;2023-07-31T11:33:43;93609.81;;;26.69;38.26
49393;BME280;35268;42.642;23.308;2023-07-31T11:36:19;93608.22;;;26.72;37.22
49393;BME280;35268;42.642;23.308;2023-07-31T11:38:45;93614.25;;;26.63;36.99
49393;BME280;35268;42.642;23.308;2023-07-31T11:41:14;93615.78;;;26.44;37.08
49393;BME280;35268;42.642;23.308;2023-07-31T11:43:39;93611.44;;;26.47;37.75
49393;BME280;35268;42.642;23.308;2023-07-31T11:46:05;93606.59;;;26.54;37.24
49393;BME280;35268;42.642;23.308;2023-07-31T11:48:36;93606.47;;;26.61;38.65
49393;BME280;35268;42.642;23.308;2023-07-31T11:51:04;93594.34;;;26.63;38.95
49393;BME280;35268;42.642;23.308;2023-07-31T11:53:35;93598.69;;;26.60;38.73
49393;BME280;35268;42.642;23.308;2023-07-31T11:56:03;93611.09;;;26.65;38.60
49393;BME280;35268;42.642;23.308;2023-07-31T11:58:33;93595.25;;;26.36;37.91
49393;BME280;35268;42.642;23.308;2023-07-31T12:01:00;93604.97;;;26.37;38.61
49393;BME280;35268;42.642;23.308;2023-07-31T12:03:26;93615.25;;;26.29;38.83
49393;BME280;35268;42.642;23.308;2023-07-31T12:05:55;93603.56;;;26.29;38.33
49393;BME280;35268;42.642;23.308;2023-07-31T12:08:21;93596.16;;;26.49;38.81
49393;BME280;35268;42.642;23.308;2023-07-31T12:10:50;93591.47;;;26.70;37.87
49393;BME280;35268;42.642;23.308;2023-07-31T12:13:24;93579.94;;;26.78;38.55
49393;BME280;35268;42.642;23.308;2023-07-31T12:15:53;93580.97;;;26.85;38.14
49393;BME280;35268;42.642;23.308;2023-07-31T12:18:20;93581.94;;;26.94;37.08
49393;BME280;35268;42.642;23.308;2023-07-31T12:20:48;93584.94;;;27.00;37.20
49393;BME280;35268;42.642;23.308;2023-07-31T12:23:18;93581.72;;;27.05;36.56
49393;BME280;35268;42.642;23.308;2023-07-31T12:25:44;93580.47;;;27.26;38.15
49393;BME280;35268;42.642;23.308;2023-07-31T12:28:10;93577.56;;;27.33;37.18
49393;BME280;35268;42.642;23.308;2023-07-31T12:30:45;93582.88;;;27.40;37.09
49393;BME280;35268;42.642;23.308;2023-07-31T12:33:14;93587.31;;;27.51;37.06
49393;BME280;35268;42.642;23.308;2023-07-31T12:35:45;93590.06;;;27.51;37.44
49393;BME280;35268;42.642;23.308;2023-07-31T12:38:12;93582.88;;;27.57;37.96
49393;BME280;35268;42.642;23.308;2023-07-31T12:40:39;93583.81;;;27.50;37.42
49393;BME280;35268;42.642;23.308;2023-07-31T12:43:04;93579.88;;;27.51;36.58
49393;BME280;35268;42.642;23.308;2023-07-31T12:45:30;93579.81;;;27.38;37.63
49393;BME280;35268;42.642;23.308;2023-07-31T12:47:57;93576.63;;;27.24;37.12
49393;BME280;35268;42.642;23.308;2023-07-31T12:50:22;93572.56;;;27.12;36.49
49393;BME280;35268;42.642;23.308;2023-07-31T12:52:49;93577.84;;;27.02;35.84
49393;BME280;35268;42.642;23.308;2023-07-31T12:55:14;93581.59;;;26.92;36.56
49393;BME280;35268;42.642;23.308;2023-07-31T12:57:40;93566.81;;;26.90;36.27
49393;BME280;35268;42.642;23.308;2023-07-31T13:00:07;93553.34;;;27.15;38.22
49393;BME280;35268;42.642;23.308;2023-07-31T13:02:33;93564.66;;;27.50;37.11
49393;BME280;35268;42.642;23.308;2023-07-31T13:04:58;93576.56;;;27.60;35.77
49393;BME280;35268;42.642;23.308;2023-07-31T13:07:24;93559.59;;;27.65;35.28
49393;BME280;35268;42.642;23.308;2023-07-31T13:09:49;93541.78;;;27.73;35.37
49393;BME280;35268;42.642;23.308;2023-07-31T13:12:21;93564.56;;;27.70;34.92
49393;BME280;35268;42.642;23.308;2023-07-31T13:15:09;93558.75;;;27.35;36.61
49393;BME280;35268;42.642;23.308;2023-07-31T13:17:35;93566.94;;;27.19;37.91
49393;BME280;35268;42.642;23.308;2023-07-31T13:20:01;93564.28;;;26.99;38.16
49393;BME280;35268;42.642;23.308;2023-07-31T13:22:27;93565.22;;;26.72;37.41